Dennis, Texas
Current Conditions -  °F | °C
As of 8:15 PM on Sunday 25 Jan 2015 (Local Time) from KGDJ Reporting Station
Clear Clear  
Wind Chill: 46°   Ceiling: Unl
Heat Index: 49°   Visibility: 10mi
Dew Point: 29°   Wind: 7mph
Humidity: 46%   Direction: 270°W
Pressure: 30.17"   Gusts: NA
Location:  32.62°N, 97.93°W
Report Text: KGDJ 260215Z AUTO 27006KT 10SM CLR 10/M01 A3017 RMK AO2 T00951015
Loading
Personal Weather Stations






























Interactive Weather Map New forecast layout! Learn more

10-Day Weather Forecast

Advertisements
Track Severe Weather on mobile